createdAt,value
2023-03-06T00:07:00.407Z,63.87
2023-03-06T00:09:28.337Z,58.36
2023-03-06T00:11:56.338Z,55.65
2023-03-06T00:14:24.243Z,57.20
2023-03-06T00:16:58.730Z,59.58
2023-03-06T00:19:27.629Z,65.60
2023-03-06T00:21:55.509Z,68.05
2023-03-06T00:24:23.498Z,62.36
2023-03-06T00:26:51.497Z,58.00
2023-03-06T00:29:19.413Z,56.44
2023-03-06T00:31:48.122Z,58.32
2023-03-06T00:34:16.235Z,60.39
2023-03-06T00:36:44.325Z,65.80
2023-03-06T00:39:12.247Z,66.87
2023-03-06T00:41:40.261Z,61.83
2023-03-06T00:44:08.440Z,57.21
2023-03-06T00:46:37.024Z,57.28
2023-03-06T00:49:04.964Z,58.77
2023-03-06T00:51:33.126Z,61.79
2023-03-06T00:54:01.550Z,67.67
2023-03-06T00:56:30.247Z,66.87
2023-03-06T01:03:44.795Z,56.71
2023-03-06T01:06:12.769Z,59.22
2023-03-06T01:08:40.713Z,64.73
2023-03-06T01:11:08.817Z,66.13
2023-03-06T01:13:36.858Z,61.76
2023-03-06T01:16:08.074Z,56.73
2023-03-06T01:18:37.205Z,56.74
2023-03-06T01:21:05.667Z,59.05
2023-03-06T01:23:33.662Z,64.87
2023-03-06T01:26:02.282Z,66.59
2023-03-06T01:28:31.802Z,62.36
2023-03-06T01:31:04.976Z,57.44
2023-03-06T01:33:33.668Z,56.82
2023-03-06T01:36:11.723Z,60.53
2023-03-06T01:38:40.617Z,66.11
2023-03-06T01:41:10.961Z,65.34
2023-03-06T01:43:41.780Z,61.92
2023-03-06T01:46:30.866Z,60.72
2023-03-06T01:50:16.095Z,55.66
2023-03-06T01:52:50.512Z,58.16
2023-03-06T01:59:28.995Z,62.64
2023-03-06T02:02:01.881Z,59.89
2023-03-06T02:04:30.322Z,56.94
2023-03-06T02:07:06.081Z,57.87
2023-03-06T02:09:37.732Z,61.87
2023-03-06T02:12:13.575Z,66.03
2023-03-06T02:14:42.800Z,63.25
2023-03-06T02:17:14.328Z,59.14
2023-03-06T02:19:54.114Z,56.35
2023-03-06T02:22:25.555Z,59.99
2023-03-06T02:25:05.179Z,64.57
2023-03-06T02:27:34.945Z,66.31
2023-03-06T02:30:08.041Z,62.24
2023-03-06T02:32:36.322Z,60.24
2023-03-06T02:35:04.882Z,57.20
2023-03-06T02:37:33.096Z,57.66
2023-03-06T02:40:29.648Z,60.06
2023-03-06T02:42:58.909Z,65.60
2023-03-06T02:45:38.761Z,66.90
2023-03-06T02:48:07.812Z,63.62
2023-03-06T02:50:35.837Z,60.03
2023-03-06T02:53:04.380Z,57.02
2023-03-06T02:55:33.183Z,58.25
2023-03-06T02:58:02.546Z,59.41
2023-03-06T03:00:32.131Z,65.46
2023-03-06T03:03:29.170Z,67.62
2023-03-06T03:06:00.269Z,64.23
2023-03-06T03:08:32.406Z,60.90
2023-03-06T03:11:06.427Z,58.36
2023-03-06T03:13:39.670Z,57.91
2023-03-06T03:16:14.281Z,61.09
2023-03-06T03:18:48.271Z,66.04
2023-03-06T03:21:18.779Z,66.23
2023-03-06T03:23:48.704Z,62.60
2023-03-06T03:26:19.540Z,60.85
2023-03-06T03:28:53.000Z,57.92
2023-03-06T03:31:48.659Z,58.25
2023-03-06T03:34:17.176Z,62.86
2023-03-06T03:36:45.950Z,66.76
2023-03-06T03:39:14.232Z,64.49
2023-03-06T03:41:42.755Z,61.59
2023-03-06T03:44:11.184Z,59.95
2023-03-06T03:46:39.712Z,57.13
2023-03-06T03:49:11.765Z,58.20
2023-03-06T03:51:39.871Z,62.71
2023-03-06T03:58:53.257Z,61.55
2023-03-06T04:01:22.367Z,60.31
2023-03-06T04:03:51.196Z,57.28
2023-03-06T04:06:19.995Z,59.08
2023-03-06T04:08:48.398Z,61.06
2023-03-06T04:11:17.258Z,67.14
2023-03-06T04:13:45.382Z,68.38
2023-03-06T04:21:05.963Z,55.94
2023-03-06T04:23:34.639Z,56.76
2023-03-06T04:26:03.840Z,60.37
2023-03-06T04:28:31.999Z,65.91
2023-03-06T04:31:00.733Z,65.92
2023-03-06T04:38:15.053Z,57.18
2023-03-06T04:40:44.890Z,60.00
2023-03-06T04:43:13.276Z,65.66
2023-03-06T04:45:41.522Z,63.27
2023-03-06T04:48:14.350Z,61.08
2023-03-06T04:55:29.729Z,59.77
2023-03-06T04:57:59.125Z,65.36
2023-03-06T05:00:34.483Z,65.99
2023-03-06T05:03:02.758Z,59.23
2023-03-06T05:05:30.927Z,56.71
2023-03-06T05:07:59.160Z,58.57
2023-03-06T05:10:27.153Z,59.89
2023-03-06T05:12:55.049Z,64.75
2023-03-06T05:15:23.680Z,68.46
2023-03-06T05:22:02.202Z,61.50
2023-03-06T05:24:30.986Z,57.79
2023-03-06T05:26:59.312Z,56.30
2023-03-06T05:29:47.006Z,58.22
2023-03-06T05:32:17.142Z,60.08
2023-03-06T05:34:48.443Z,65.27
2023-03-06T05:37:16.403Z,67.07
2023-03-06T05:39:44.428Z,62.34
2023-03-06T05:42:12.390Z,58.07
2023-03-06T05:44:42.008Z,56.07
2023-03-06T05:47:11.420Z,57.08
2023-03-06T05:49:40.286Z,61.49
2023-03-06T05:52:08.799Z,66.85
2023-03-06T05:54:37.477Z,65.72
2023-03-06T05:57:06.259Z,61.38
2023-03-06T05:59:34.510Z,56.78
2023-03-06T06:02:04.080Z,56.07
2023-03-06T06:04:32.428Z,57.31
2023-03-06T06:07:01.853Z,59.49
2023-03-06T06:09:30.551Z,65.37
2023-03-06T06:12:01.830Z,66.36
2023-03-06T06:14:33.806Z,61.83
2023-03-06T06:17:07.784Z,56.42
2023-03-06T06:19:36.032Z,56.02
2023-03-06T06:22:04.926Z,58.85
2023-03-06T06:24:33.162Z,60.75
2023-03-06T06:27:03.725Z,65.26
2023-03-06T06:29:32.678Z,66.90
2023-03-06T06:32:01.755Z,61.70
2023-03-06T06:34:30.754Z,55.85
2023-03-06T06:37:00.366Z,55.08
2023-03-06T06:39:30.819Z,57.53
2023-03-06T06:42:15.444Z,59.37
2023-03-06T06:44:51.660Z,65.24
2023-03-06T06:47:24.110Z,66.21
2023-03-06T06:49:56.838Z,60.92
2023-03-06T06:52:29.213Z,55.53
2023-03-06T06:54:58.146Z,55.48
2023-03-06T06:57:26.661Z,57.79
2023-03-06T06:59:54.858Z,59.18
2023-03-06T07:02:23.480Z,63.16
2023-03-06T07:05:43.416Z,64.05
2023-03-06T07:08:11.644Z,60.03
2023-03-06T07:10:40.178Z,53.56
2023-03-06T07:13:09.114Z,55.63
2023-03-06T07:15:38.502Z,58.35
2023-03-06T07:18:06.731Z,61.28
2023-03-06T07:20:34.972Z,65.64
2023-03-06T07:23:03.278Z,64.56
2023-03-06T07:25:33.481Z,58.87
2023-03-06T07:28:01.724Z,55.39
2023-03-06T07:30:30.349Z,58.57
2023-03-06T07:33:26.976Z,60.68
2023-03-06T07:35:55.157Z,66.08
2023-03-06T07:38:23.342Z,62.73
2023-03-06T07:40:57.461Z,57.24
2023-03-06T07:43:26.254Z,57.09
2023-03-06T07:46:01.214Z,60.51
2023-03-06T07:48:29.472Z,64.84
2023-03-06T07:50:58.051Z,62.32
2023-03-06T07:53:26.861Z,56.25
2023-03-06T07:55:55.986Z,57.67
2023-03-06T07:58:24.906Z,60.81
2023-03-06T08:00:54.125Z,64.33
2023-03-06T08:03:23.427Z,62.49
2023-03-06T08:05:51.543Z,55.30
2023-03-06T08:08:19.741Z,56.67
2023-03-06T08:10:49.493Z,59.55
2023-03-06T08:17:29.432Z,63.20
2023-03-06T08:19:58.325Z,57.34
2023-03-06T08:22:27.262Z,56.28
2023-03-06T08:24:56.470Z,58.26
2023-03-06T08:27:24.643Z,60.31
2023-03-06T08:29:54.034Z,63.21
2023-03-06T08:32:22.763Z,58.17
2023-03-06T08:34:51.801Z,56.67
2023-03-06T08:37:19.987Z,58.65
2023-03-06T08:39:48.311Z,60.76
2023-03-06T08:42:16.842Z,63.28
2023-03-06T08:44:45.576Z,59.03
2023-03-06T08:47:13.975Z,55.97
2023-03-06T08:49:42.104Z,58.43
2023-03-06T08:52:11.231Z,58.82
2023-03-06T08:54:39.834Z,59.80
2023-03-06T08:57:09.350Z,61.01
2023-03-06T08:59:38.218Z,62.08
2023-03-06T09:02:07.831Z,64.92
2023-03-06T09:04:36.435Z,57.87
2023-03-06T09:07:04.797Z,55.61
2023-03-06T09:09:33.784Z,58.19
2023-03-06T09:12:02.656Z,59.55
2023-03-06T09:14:31.582Z,60.43
2023-03-06T09:16:59.880Z,59.69
2023-03-06T09:19:28.660Z,60.51
2023-03-06T09:22:01.190Z,60.87
2023-03-06T09:24:30.017Z,61.33
2023-03-06T09:26:58.775Z,61.98
2023-03-06T09:29:26.903Z,64.49
2023-03-06T09:31:55.486Z,56.56
2023-03-06T09:34:23.776Z,54.33
2023-03-06T09:36:57.103Z,56.50
2023-03-06T09:39:27.347Z,58.23
2023-03-06T09:41:57.826Z,59.53
2023-03-06T09:44:31.144Z,60.66
2023-03-06T09:47:21.163Z,60.55
2023-03-06T09:49:55.676Z,60.38
2023-03-06T09:52:29.616Z,60.28
2023-03-06T09:55:09.326Z,60.59
2023-03-06T09:57:42.710Z,60.55
2023-03-06T10:00:35.937Z,60.09
2023-03-06T10:04:23.180Z,59.61
2023-03-06T10:06:53.642Z,59.33
2023-03-06T10:09:43.766Z,58.48
2023-03-06T10:12:26.157Z,59.65
2023-03-06T10:15:13.450Z,59.19
2023-03-06T10:17:43.553Z,59.35
2023-03-06T10:20:24.040Z,58.10
2023-03-06T10:23:05.149Z,57.51
2023-03-06T10:25:50.160Z,57.77
2023-03-06T10:28:29.659Z,56.83
2023-03-06T10:31:20.043Z,56.62
2023-03-06T10:38:31.964Z,55.76
2023-03-06T10:41:13.122Z,55.72
2023-03-06T10:43:43.946Z,56.29
2023-03-06T10:46:51.294Z,54.41
2023-03-06T10:49:35.103Z,52.46
2023-03-06T10:54:49.390Z,52.36
2023-03-06T11:02:37.496Z,53.61
2023-03-06T11:05:19.052Z,52.99
2023-03-06T11:08:25.342Z,52.16
2023-03-06T11:11:03.042Z,49.79
2023-03-06T11:13:41.181Z,49.75
2023-03-06T11:16:32.831Z,49.40
2023-03-06T11:19:10.507Z,50.21
2023-03-06T11:21:40.564Z,49.50
2023-03-06T11:24:21.860Z,49.62
2023-03-06T11:27:09.258Z,49.92
2023-03-06T11:29:43.549Z,50.08
2023-03-06T11:32:21.161Z,50.58
2023-03-06T11:35:06.082Z,50.35
2023-03-06T11:37:46.618Z,50.41
2023-03-06T11:40:24.920Z,50.68
2023-03-06T11:48:03.951Z,51.07
2023-03-06T11:50:39.926Z,51.66
2023-03-06T11:53:15.963Z,51.59
2023-03-06T11:56:01.305Z,50.47
2023-03-06T11:58:35.297Z,50.84
2023-03-06T12:01:13.995Z,51.41
2023-03-06T12:08:19.906Z,50.47
2023-03-06T12:10:57.798Z,50.78
2023-03-06T12:13:56.786Z,50.72
2023-03-06T12:17:05.903Z,50.74
2023-03-06T12:19:46.664Z,50.84
2023-03-06T12:22:33.532Z,51.32
2023-03-06T12:25:31.159Z,51.23
2023-03-06T12:32:35.373Z,52.59
2023-03-06T12:35:13.408Z,52.98
2023-03-06T12:37:41.673Z,52.41
2023-03-06T12:40:40.365Z,51.81
2023-03-06T12:43:20.983Z,51.86
2023-03-06T12:46:28.580Z,52.08
2023-03-06T12:49:32.557Z,52.11
2023-03-06T12:52:04.697Z,52.82
2023-03-06T12:54:37.858Z,52.91
2023-03-06T12:57:08.736Z,52.31
2023-03-06T12:59:38.102Z,51.90
2023-03-06T13:02:37.743Z,51.87
2023-03-06T13:05:18.783Z,51.87
2023-03-06T13:08:18.503Z,51.44
2023-03-06T13:11:06.814Z,52.33
2023-03-06T13:13:44.004Z,51.70
2023-03-06T13:16:32.361Z,51.33
2023-03-06T13:19:00.693Z,50.95
2023-03-06T13:21:50.264Z,51.45
2023-03-06T13:24:27.861Z,52.55
2023-03-06T13:27:10.510Z,53.93
2023-03-06T13:29:38.731Z,54.72
2023-03-06T13:32:29.374Z,55.95
2023-03-06T13:34:57.620Z,56.16
2023-03-06T13:37:25.587Z,56.63
2023-03-06T13:39:59.841Z,57.27
2023-03-06T13:42:28.537Z,58.67
2023-03-06T13:45:15.443Z,60.60
2023-03-06T13:52:42.779Z,64.08
2023-03-06T13:55:31.739Z,57.12
2023-03-06T13:58:18.043Z,54.90
2023-03-06T14:01:21.401Z,56.87
2023-03-06T14:04:11.137Z,58.18
2023-03-06T14:06:40.777Z,58.36
2023-03-06T14:09:45.832Z,59.23
2023-03-06T14:12:26.660Z,59.12
2023-03-06T14:14:58.561Z,59.74
2023-03-06T14:17:33.404Z,60.53
2023-03-06T14:20:13.448Z,60.24
2023-03-06T14:26:54.547Z,56.67
2023-03-06T14:29:26.376Z,56.28
2023-03-06T14:31:57.985Z,56.10
2023-03-06T14:35:06.696Z,55.66
2023-03-06T14:37:37.592Z,54.17
2023-03-06T14:40:11.451Z,53.93
2023-03-06T14:42:39.928Z,53.53
2023-03-06T14:45:17.160Z,52.80
2023-03-06T14:47:53.989Z,52.67
2023-03-06T14:50:27.819Z,51.89
2023-03-06T14:53:01.082Z,52.32
2023-03-06T14:55:33.457Z,52.00
2023-03-06T14:58:04.289Z,51.92
2023-03-06T15:00:42.266Z,50.83
2023-03-06T15:03:20.903Z,51.70
2023-03-06T15:05:51.180Z,51.91
2023-03-06T15:13:26.465Z,52.56
2023-03-06T15:16:22.376Z,52.49
2023-03-06T15:19:20.069Z,53.63
2023-03-06T15:21:51.950Z,55.28
2023-03-06T15:24:38.360Z,56.49
2023-03-06T15:27:16.590Z,57.19
2023-03-06T15:29:44.647Z,57.63
2023-03-06T15:32:15.794Z,57.99
2023-03-06T15:34:43.808Z,58.14
2023-03-06T15:37:28.962Z,58.09
2023-03-06T15:40:09.555Z,58.38
2023-03-06T15:42:37.853Z,58.27
2023-03-06T15:45:35.093Z,58.28
2023-03-06T15:48:17.223Z,58.20
2023-03-06T15:50:45.377Z,57.78
2023-03-06T15:53:13.373Z,58.01
2023-03-06T15:55:41.361Z,57.53
2023-03-06T15:58:15.276Z,57.62
2023-03-06T16:00:44.134Z,57.71
2023-03-06T16:03:13.625Z,57.56
2023-03-06T16:05:41.793Z,57.70
2023-03-06T16:08:15.301Z,58.06
2023-03-06T16:10:46.914Z,58.69
2023-03-06T16:14:06.475Z,60.18
2023-03-06T16:16:37.721Z,65.27
2023-03-06T16:19:26.715Z,62.14
2023-03-06T16:22:00.258Z,57.93
2023-03-06T16:24:29.340Z,61.05
2023-03-06T16:27:01.687Z,66.30
2023-03-06T16:29:30.642Z,63.39
2023-03-06T16:32:00.912Z,60.20
2023-03-06T16:35:08.291Z,57.96
2023-03-06T16:37:36.774Z,60.35
2023-03-06T16:40:07.986Z,63.86
2023-03-06T16:42:39.548Z,67.51
2023-03-06T16:45:08.438Z,65.53
2023-03-06T16:47:45.541Z,60.41
2023-03-06T16:50:25.962Z,56.82
2023-03-06T16:52:56.497Z,58.86
2023-03-06T16:55:27.040Z,61.48
2023-03-06T17:02:41.572Z,61.05
2023-03-06T17:05:12.113Z,56.67
2023-03-06T17:07:41.236Z,57.45
2023-03-06T17:14:20.245Z,65.76
2023-03-06T17:16:48.240Z,60.40
2023-03-06T17:19:16.376Z,55.97
2023-03-06T17:21:44.410Z,58.64
2023-03-06T17:24:12.366Z,60.61
2023-03-06T17:26:40.363Z,65.52
2023-03-06T17:29:09.706Z,65.06
2023-03-06T17:31:38.103Z,60.76
2023-03-06T17:34:06.468Z,56.90
2023-03-06T17:36:34.839Z,58.38
2023-03-06T17:39:04.134Z,60.74
2023-03-06T17:41:34.222Z,65.83
2023-03-06T17:44:02.284Z,65.04
2023-03-06T17:46:32.270Z,60.72
2023-03-06T17:49:00.609Z,56.14
2023-03-06T17:51:28.790Z,56.97
2023-03-06T17:53:57.641Z,60.37
2023-03-06T17:56:26.733Z,63.97
2023-03-06T17:58:55.552Z,64.19
2023-03-06T18:01:27.591Z,58.50
2023-03-06T18:03:56.925Z,56.56
2023-03-06T18:06:27.742Z,60.10
2023-03-06T18:08:56.359Z,63.21
2023-03-06T18:11:24.773Z,64.73
2023-03-06T18:13:53.008Z,61.56
2023-03-06T18:16:23.307Z,56.90
2023-03-06T18:18:53.518Z,56.89
2023-03-06T18:21:23.331Z,60.70
2023-03-06T18:23:51.473Z,64.61
2023-03-06T18:26:25.657Z,63.69
2023-03-06T18:28:56.428Z,60.13
2023-03-06T18:31:28.341Z,56.18
2023-03-06T18:33:59.266Z,57.62
2023-03-06T18:36:31.331Z,61.11
2023-03-06T18:39:01.062Z,65.52
2023-03-06T18:41:30.444Z,63.57
2023-03-06T18:44:00.793Z,57.89
2023-03-06T18:46:38.286Z,57.38
2023-03-06T18:49:07.765Z,61.32
2023-03-06T18:51:35.682Z,66.21
2023-03-06T18:54:05.328Z,65.03
2023-03-06T18:56:34.191Z,59.32
2023-03-06T18:59:05.580Z,56.16
2023-03-06T19:01:34.341Z,58.91
2023-03-06T19:04:04.613Z,64.20
2023-03-06T19:06:32.975Z,64.58
2023-03-06T19:09:02.445Z,59.70
2023-03-06T19:11:32.587Z,57.90
2023-03-06T19:14:00.692Z,61.20
2023-03-06T19:16:31.688Z,65.01
2023-03-06T19:18:59.685Z,65.58
2023-03-06T19:21:28.354Z,60.09
2023-03-06T19:23:57.434Z,56.53
2023-03-06T19:26:25.531Z,59.97
2023-03-06T19:28:53.761Z,64.41
2023-03-06T19:31:25.196Z,64.74
2023-03-06T19:33:54.921Z,59.98
2023-03-06T19:36:27.854Z,57.40
2023-03-06T19:38:57.340Z,60.23
2023-03-06T19:41:26.652Z,64.60
2023-03-06T19:43:58.435Z,64.21
2023-03-06T19:46:27.711Z,59.74
2023-03-06T19:48:58.055Z,56.92
2023-03-06T19:51:27.267Z,60.89
2023-03-06T19:53:56.418Z,64.76
2023-03-06T19:56:29.418Z,64.65
2023-03-06T19:58:57.899Z,60.51
2023-03-06T20:01:27.526Z,56.24
2023-03-06T20:03:59.455Z,56.87
2023-03-06T20:06:30.301Z,61.28
2023-03-06T20:08:58.789Z,65.72
2023-03-06T20:11:30.247Z,64.98
2023-03-06T20:14:00.765Z,58.04
2023-03-06T20:16:32.373Z,56.37
2023-03-06T20:19:02.603Z,59.96
2023-03-06T20:21:38.289Z,61.01
2023-03-06T20:24:08.676Z,65.59
2023-03-06T20:26:38.809Z,65.27
2023-03-06T20:29:06.943Z,61.23
2023-03-06T20:31:35.334Z,57.38
2023-03-06T20:34:05.056Z,56.55
2023-03-06T20:36:41.351Z,58.87
2023-03-06T20:39:13.380Z,61.20
2023-03-06T20:41:41.363Z,65.29
2023-03-06T20:44:17.434Z,64.77
2023-03-06T20:46:46.381Z,61.25
2023-03-06T20:49:14.884Z,56.53
2023-03-06T20:51:42.932Z,55.65
2023-03-06T20:54:13.526Z,58.42
2023-03-06T20:56:43.377Z,60.62
2023-03-06T20:59:14.197Z,64.30
2023-03-06T21:01:44.358Z,62.57
2023-03-06T21:04:14.538Z,56.28
2023-03-06T21:06:46.910Z,57.31
2023-03-06T21:09:18.989Z,59.07
2023-03-06T21:11:50.777Z,62.22
2023-03-06T21:14:28.776Z,64.48
2023-03-06T21:16:57.272Z,61.82
2023-03-06T21:19:28.723Z,55.35
2023-03-06T21:22:01.750Z,55.49
2023-03-06T21:24:39.698Z,59.28
2023-03-06T21:27:07.614Z,61.19
2023-03-06T21:29:35.560Z,65.34
2023-03-06T21:32:03.739Z,62.93
2023-03-06T21:34:31.763Z,58.10
2023-03-06T21:36:59.664Z,58.24
2023-03-06T21:39:27.706Z,60.89
2023-03-06T21:41:56.532Z,64.77
2023-03-06T21:44:25.237Z,63.01
2023-03-06T21:46:56.553Z,59.04
2023-03-06T21:49:26.635Z,55.12
2023-03-06T21:51:55.012Z,57.24
2023-03-06T21:54:23.296Z,60.98
2023-03-06T21:56:51.348Z,64.08
2023-03-06T21:59:20.796Z,65.78
2023-03-06T22:01:49.144Z,62.60
2023-03-06T22:04:17.814Z,55.87
2023-03-06T22:06:46.219Z,54.62
2023-03-06T22:09:17.116Z,57.20
2023-03-06T22:11:45.690Z,59.23
2023-03-06T22:14:14.959Z,62.76
2023-03-06T22:16:42.979Z,66.15
2023-03-06T22:19:10.880Z,63.86
2023-03-06T22:21:38.748Z,58.47
2023-03-06T22:24:06.945Z,56.74
2023-03-06T22:26:34.931Z,58.51
2023-03-06T22:29:02.804Z,61.46
2023-03-06T22:31:30.860Z,65.65
2023-03-06T22:34:00.512Z,61.76
2023-03-06T22:36:30.855Z,57.69
2023-03-06T22:39:01.278Z,57.61
2023-03-06T22:41:30.183Z,61.74
2023-03-06T22:44:01.164Z,63.82
2023-03-06T22:46:30.300Z,63.05
2023-03-06T22:49:00.047Z,62.73
2023-03-06T22:51:28.822Z,58.40
2023-03-06T22:53:56.869Z,56.38
2023-03-06T22:56:25.299Z,58.05
2023-03-06T22:58:53.412Z,59.31
2023-03-06T23:01:25.403Z,64.43
2023-03-06T23:03:56.483Z,66.39
2023-03-06T23:06:28.638Z,63.35
2023-03-06T23:09:06.007Z,60.37
2023-03-06T23:11:53.044Z,56.27
2023-03-06T23:14:40.004Z,54.61
2023-03-06T23:17:26.924Z,56.55
2023-03-06T23:20:14.217Z,58.88
2023-03-06T23:23:00.475Z,59.82
2023-03-06T23:25:44.177Z,65.58
2023-03-06T23:28:12.384Z,67.03
2023-03-06T23:30:41.731Z,63.10
2023-03-06T23:33:10.584Z,61.67
2023-03-06T23:35:41.511Z,57.91
2023-03-06T23:38:09.425Z,56.60
2023-03-06T23:40:40.523Z,57.24
2023-03-06T23:43:08.498Z,58.00
2023-03-06T23:45:37.164Z,59.38
2023-03-06T23:48:08.058Z,63.67
2023-03-06T23:50:39.800Z,67.31
2023-03-06T23:53:07.693Z,64.93
2023-03-06T23:55:35.564Z,61.29
2023-03-06T23:58:03.576Z,56.82
